Time;durP1;ratioP1;P1;durP2;ratioP2;P2;SDS_P1;SDS_P2;PMS_P1;PMS_P2;Temp;Humidity;BMP_temperature;BMP_pressure;BME280_temperature;BME280_humidity;BME280_pressure;Samples;Min_cycle;Max_cycle;Signal;HPM_P1;HPM_P2
2021/05/29 00:26:44;;;;;;;;;;;;;;;;;;5157477;27;20075;-68
2021/05/29 00:29:20;;;;;;;7.45;2.20;;;;;;;;;;5157371;27;20049;-65
2021/05/29 00:32:16;;;;;;;8.85;3.20;;;;;;;;;;5157145;27;20198;-66
2021/05/29 00:34:52;;;;;;;7.95;2.62;;;;;;;;;;5159635;27;20090;-66
2021/05/29 00:37:19;;;;;;;8.88;2.78;;;;;;;;;;5159975;27;20059;-64
2021/05/29 00:39:45;;;;;;;5.07;2.08;;;;;;;;;;5158607;27;20098;-64
2021/05/29 00:42:11;;;;;;;3.37;2.30;;;;;;;;;;5159965;27;20171;-68
2021/05/29 00:44:48;;;;;;;7.50;2.62;;;;;;;;;;5158611;27;20082;-65
2021/05/29 00:47:18;;;;;;;4.95;2.05;;;;;;;;;;5159955;27;20252;-64
2021/05/29 00:49:44;;;;;;;6.70;2.30;;;;;;;;;;5158255;27;20560;-62
2021/05/29 00:52:12;;;;;;;6.87;2.10;;;;;;;;;;5159864;27;20097;-62
2021/05/29 00:54:38;;;;;;;7.97;2.25;;;;;;;;;;5141137;27;20081;-62
2021/05/29 00:57:04;;;;;;;3.10;2.30;;;;;;;;;;5160061;27;20173;-63
2021/05/29 00:59:31;;;;;;;2.40;2.10;;;;;;;;;;5159877;27;20109;-64
2021/05/29 01:01:57;;;;;;;6.40;2.15;;;;;;;;;;5158381;27;20134;-65
2021/05/29 01:04:23;;;;;;;10.10;2.37;;;;;;;;;;5158506;27;20089;-65
2021/05/29 01:06:49;;;;;;;3.92;2.17;;;;;;;;;;5159723;27;20098;-68
2021/05/29 01:09:15;;;;;;;3.35;2.10;;;;;;;;;;5158451;27;20511;-65
2021/05/29 01:11:40;;;;;;;6.45;2.10;;;;;;;;;;5157515;27;20075;-65
2021/05/29 01:14:06;;;;;;;4.47;2.03;;;;;;;;;;5159646;27;20164;-65
2021/05/29 01:19:10;;;;;;;2.95;2.28;;;;;;;;;;5160051;27;20085;-64
2021/05/29 01:21:36;;;;;;;2.80;1.92;;;;;;;;;;5157813;27;20090;-64
2021/05/29 01:24:01;;;;;;;6.45;2.30;;;;;;;;;;5159500;27;20082;-64
2021/05/29 01:26:27;;;;;;;5.50;2.40;;;;;;;;;;5157989;27;20177;-63
2021/05/29 01:28:55;;;;;;;5.32;2.17;;;;;;;;;;5159938;27;20070;-70
2021/05/29 01:31:28;;;;;;;12.35;2.83;;;;;;;;;;5159827;27;20474;-65
2021/05/29 01:33:58;;;;;;;4.18;2.92;;;;;;;;;;5157988;27;20066;-67
2021/05/29 01:36:24;;;;;;;3.62;2.50;;;;;;;;;;5158184;27;20480;-65
2021/05/29 01:38:50;;;;;;;7.55;2.60;;;;;;;;;;5159675;27;20078;-66
2021/05/29 01:41:17;;;;;;;8.40;2.90;;;;;;;;;;5159402;27;20079;-63
2021/05/29 01:43:48;;;;;;;6.25;3.10;;;;;;;;;;5159807;27;20086;-64
2021/05/29 01:46:16;;;;;;;8.20;2.53;;;;;;;;;;5157710;27;20126;-67
2021/05/29 01:48:44;;;;;;;6.95;2.40;;;;;;;;;;5159801;27;20552;-68
2021/05/29 01:51:14;;;;;;;5.50;2.42;;;;;;;;;;5159269;27;20150;-64
2021/05/29 01:53:40;;;;;;;3.37;2.50;;;;;;;;;;5159472;27;20090;-64
2021/05/29 01:56:07;;;;;;;6.20;2.33;;;;;;;;;;5159589;27;20101;-63
2021/05/29 01:58:33;;;;;;;10.82;2.55;;;;;;;;;;5159950;27;20102;-67
2021/05/29 02:00:59;;;;;;;4.87;2.45;;;;;;;;;;5175164;27;20066;-67
2021/05/29 02:03:25;;;;;;;4.37;2.78;;;;;;;;;;5159738;27;20465;-63
2021/05/29 02:05:51;;;;;;;7.12;2.53;;;;;;;;;;5159622;27;20577;-64
2021/05/29 02:08:18;;;;;;;6.85;2.55;;;;;;;;;;5157989;27;20508;-63
2021/05/29 02:10:45;;;;;;;3.78;2.37;;;;;;;;;;5159740;27;20093;-63
2021/05/29 02:13:20;;;;;;;3.65;2.20;;;;;;;;;;5159382;27;20086;-65
2021/05/29 02:15:46;;;;;;;6.62;2.37;;;;;;;;;;5158147;27;20478;-64
2021/05/29 02:18:12;;;;;;;5.20;2.30;;;;;;;;;;5159330;27;20098;-67
2021/05/29 02:20:40;;;;;;;4.85;2.15;;;;;;;;;;5159328;27;20097;-64
2021/05/29 02:23:07;;;;;;;9.32;2.20;;;;;;;;;;5159029;27;20089;-65
2021/05/29 02:25:59;;;;;;;5.95;2.55;;;;;;;;;;5158540;27;20097;-67
2021/05/29 02:28:29;;;;;;;5.57;2.33;;;;;;;;;;5158588;27;20484;-63
2021/05/29 02:30:57;;;;;;;5.05;1.95;;;;;;;;;;5140309;27;20513;-64
2021/05/29 02:33:24;;;;;;;6.35;2.50;;;;;;;;;;5157538;27;20078;-64
2021/05/29 02:35:52;;;;;;;3.83;2.33;;;;;;;;;;5157801;27;20086;-64
2021/05/29 02:38:19;;;;;;;3.55;2.33;;;;;;;;;;5159557;27;20582;-62
2021/05/29 02:40:45;;;;;;;8.18;2.17;;;;;;;;;;5157600;27;20191;-64
2021/05/29 02:43:11;;;;;;;3.40;2.05;;;;;;;;;;5159582;27;20412;-63
2021/05/29 02:45:41;;;;;;;9.88;2.22;;;;;;;;;;5159227;27;20114;-63
2021/05/29 02:48:11;;;;;;;10.02;2.10;;;;;;;;;;5159616;27;20055;-64
2021/05/29 02:50:39;;;;;;;6.80;2.42;;;;;;;;;;5159614;27;20091;-64
2021/05/29 02:53:06;;;;;;;6.07;2.35;;;;;;;;;;5159183;27;20160;-63
2021/05/29 02:55:52;;;;;;;3.72;2.35;;;;;;;;;;5159506;27;20401;-63
2021/05/29 02:58:21;;;;;;;4.53;2.00;;;;;;;;;;5159081;27;20085;-66
2021/05/29 03:00:48;;;;;;;6.95;2.87;;;;;;;;;;5157829;27;20184;-63
2021/05/29 03:03:14;;;;;;;5.50;2.28;;;;;;;;;;5159256;27;20082;-66
2021/05/29 03:05:42;;;;;;;2.75;2.12;;;;;;;;;;5157732;27;20440;-66
2021/05/29 03:08:10;;;;;;;5.85;3.15;;;;;;;;;;5157434;27;20089;-63
2021/05/29 03:10:35;;;;;;;3.08;2.20;;;;;;;;;;5157686;27;20077;-66
2021/05/29 03:13:01;;;;;;;4.65;2.30;;;;;;;;;;5158795;27;20067;-63
2021/05/29 03:15:27;;;;;;;3.25;2.12;;;;;;;;;;5159352;27;20176;-64
2021/05/29 03:17:54;;;;;;;3.78;2.50;;;;;;;;;;5159170;27;20165;-63
2021/05/29 03:20:22;;;;;;;6.53;2.53;;;;;;;;;;5157520;27;20091;-63
2021/05/29 03:22:48;;;;;;;3.65;2.03;;;;;;;;;;5157463;27;20066;-63
2021/05/29 03:25:15;;;;;;;5.20;2.40;;;;;;;;;;5159320;27;20108;-64
2021/05/29 03:27:41;;;;;;;16.70;2.50;;;;;;;;;;5158991;27;20073;-64
2021/05/29 03:30:12;;;;;;;9.00;3.17;;;;;;;;;;5157330;27;20070;-63
2021/05/29 03:32:38;;;;;;;6.57;3.55;;;;;;;;;;5158970;27;20105;-66
2021/05/29 03:35:04;;;;;;;11.32;6.35;;;;;;;;;;5159054;27;20082;-64
2021/05/29 03:37:30;;;;;;;17.37;6.45;;;;;;;;;;5160279;27;20090;-63
2021/05/29 03:39:56;;;;;;;12.02;6.65;;;;;;;;;;5159294;27;20174;-67
2021/05/29 03:42:22;;;;;;;16.35;6.05;;;;;;;;;;5160280;27;20580;-68
2021/05/29 03:44:48;;;;;;;13.48;6.35;;;;;;;;;;5158712;27;20185;-65
2021/05/29 03:47:14;;;;;;;19.33;7.00;;;;;;;;;;5160214;27;20538;-66
2021/05/29 03:49:40;;;;;;;18.15;6.03;;;;;;;;;;5160255;27;20114;-63
2021/05/29 03:52:07;;;;;;;16.52;6.72;;;;;;;;;;5158737;27;20094;-63
2021/05/29 03:54:34;;;;;;;14.52;5.93;;;;;;;;;;5160558;27;20196;-64
2021/05/29 03:57:02;;;;;;;16.70;5.90;;;;;;;;;;5157515;27;20389;-64
2021/05/29 03:59:34;;;;;;;16.70;6.22;;;;;;;;;;5160032;27;20489;-68
2021/05/29 04:02:00;;;;;;;14.73;5.82;;;;;;;;;;5160428;27;20405;-65
2021/05/29 04:04:26;;;;;;;20.10;6.37;;;;;;;;;;5160505;27;20181;-65
2021/05/29 04:06:52;;;;;;;11.63;5.53;;;;;;;;;;5160144;27;20448;-64
2021/05/29 04:09:18;;;;;;;15.27;6.15;;;;;;;;;;5160512;27;20420;-66
2021/05/29 04:11:44;;;;;;;17.92;6.07;;;;;;;;;;5160201;27;20090;-64
2021/05/29 04:14:10;;;;;;;12.93;6.05;;;;;;;;;;5176070;27;20081;-65
2021/05/29 04:16:36;;;;;;;13.15;5.60;;;;;;;;;;5160043;27;20081;-63
2021/05/29 04:19:02;;;;;;;13.45;6.22;;;;;;;;;;5160132;27;20094;-65
2021/05/29 04:21:28;;;;;;;13.80;6.25;;;;;;;;;;5160367;27;20523;-63
2021/05/29 04:23:55;;;;;;;14.80;6.05;;;;;;;;;;5159873;27;20515;-63
2021/05/29 04:26:21;;;;;;;13.52;6.40;;;;;;;;;;5160068;27;20081;-64
2021/05/29 04:28:48;;;;;;;15.63;5.47;;;;;;;;;;5160229;27;20472;-66
2021/05/29 04:31:15;;;;;;;8.35;5.00;;;;;;;;;;5158216;27;20161;-62
2021/05/29 04:33:42;;;;;;;15.13;5.18;;;;;;;;;;5158222;27;20082;-64
2021/05/29 04:36:08;;;;;;;17.90;5.62;;;;;;;;;;5160050;27;20101;-62
2021/05/29 04:38:34;;;;;;;9.07;5.18;;;;;;;;;;5160265;27;20098;-64
2021/05/29 04:41:00;;;;;;;16.08;6.25;;;;;;;;;;5157903;27;20519;-64
2021/05/29 04:43:26;;;;;;;9.55;5.40;;;;;;;;;;5159866;27;20113;-63
2021/05/29 04:45:52;;;;;;;14.90;4.90;;;;;;;;;;5158147;27;20094;-64
2021/05/29 04:48:18;;;;;;;15.90;5.90;;;;;;;;;;5159604;27;20500;-63
2021/05/29 04:53:29;;;;;;;11.23;5.12;;;;;;;;;;5159981;27;20074;-66
2021/05/29 04:55:57;;;;;;;13.98;5.32;;;;;;;;;;5158457;27;20483;-64
2021/05/29 04:58:23;;;;;;;17.25;5.70;;;;;;;;;;5158205;27;20085;-66
2021/05/29 05:00:50;;;;;;;19.33;5.40;;;;;;;;;;5160084;27;20179;-65
2021/05/29 05:03:16;;;;;;;12.70;6.60;;;;;;;;;;5160138;27;20089;-66
2021/05/29 05:05:42;;;;;;;6.05;3.42;;;;;;;;;;5141237;27;20420;-63
2021/05/29 05:08:09;;;;;;;13.65;4.95;;;;;;;;;;5159942;27;20090;-64
2021/05/29 05:10:35;;;;;;;8.15;2.97;;;;;;;;;;5159789;27;20193;-66
2021/05/29 05:13:01;;;;;;;11.35;3.15;;;;;;;;;;5159558;27;20177;-64
2021/05/29 05:15:27;;;;;;;1.73;1.62;;;;;;;;;;5160094;27;20108;-64
2021/05/29 05:17:53;;;;;;;6.28;2.05;;;;;;;;;;5160163;27;20508;-64
2021/05/29 05:20:20;;;;;;;1.58;1.48;;;;;;;;;;5140896;27;20062;-64
2021/05/29 05:22:46;;;;;;;8.98;2.90;;;;;;;;;;5159843;27;20560;-64
2021/05/29 05:25:13;;;;;;;2.03;1.92;;;;;;;;;;5159638;27;20079;-64
2021/05/29 05:27:39;;;;;;;5.35;2.65;;;;;;;;;;5159432;27;20492;-65
2021/05/29 05:30:07;;;;;;;7.75;2.80;;;;;;;;;;5159649;27;20094;-65
2021/05/29 05:32:33;;;;;;;4.55;2.50;;;;;;;;;;5159530;27;20101;-65
2021/05/29 05:35:02;;;;;;;4.90;2.22;;;;;;;;;;5159471;27;20102;-64
2021/05/29 05:37:28;;;;;;;10.98;3.92;;;;;;;;;;5159889;27;20082;-66
2021/05/29 05:39:54;;;;;;;3.95;2.62;;;;;;;;;;5157836;27;20078;-66
2021/05/29 05:42:20;;;;;;;10.63;3.05;;;;;;;;;;5159605;27;20168;-65
2021/05/29 05:44:47;;;;;;;8.02;3.03;;;;;;;;;;5159556;27;20071;-65
2021/05/29 05:47:13;;;;;;;8.30;3.28;;;;;;;;;;5159423;27;20187;-67
2021/05/29 05:49:39;;;;;;;6.47;2.80;;;;;;;;;;5158141;27;20094;-64
2021/05/29 05:52:05;;;;;;;3.87;2.20;;;;;;;;;;5159619;27;20085;-64
2021/05/29 05:54:31;;;;;;;6.43;2.95;;;;;;;;;;5159810;27;20493;-64
2021/05/29 05:56:57;;;;;;;4.30;3.00;;;;;;;;;;5159315;27;20432;-64
2021/05/29 05:59:23;;;;;;;6.55;2.92;;;;;;;;;;5159753;27;20524;-64
2021/05/29 06:01:49;;;;;;;10.75;4.18;;;;;;;;;;5159822;27;20094;-66
2021/05/29 06:04:15;;;;;;;16.58;3.40;;;;;;;;;;5157764;27;20098;-64
2021/05/29 06:06:41;;;;;;;13.18;3.47;;;;;;;;;;5159769;27;20088;-65
2021/05/29 06:09:07;;;;;;;7.10;2.92;;;;;;;;;;5159626;27;20086;-64
2021/05/29 06:11:33;;;;;;;8.82;3.70;;;;;;;;;;5140053;27;20112;-65
2021/05/29 06:19:25;;;;;;;4.78;3.20;;;;;;;;;;5159366;27;20086;-65
2021/05/29 06:21:53;;;;;;;7.65;4.00;;;;;;;;;;5159314;27;20540;-65
2021/05/29 06:24:26;;;;;;;15.15;3.65;;;;;;;;;;5159292;27;20078;-64
2021/05/29 06:26:52;;;;;;;9.23;3.90;;;;;;;;;;5159178;27;20098;-65
2021/05/29 06:29:18;;;;;;;14.00;5.57;;;;;;;;;;5159402;27;20575;-66
2021/05/29 06:31:45;;;;;;;7.93;3.70;;;;;;;;;;5157360;27;20082;-66
2021/05/29 06:34:11;;;;;;;11.68;3.87;;;;;;;;;;5159540;27;20098;-64
2021/05/29 06:36:36;;;;;;;9.32;4.10;;;;;;;;;;5159296;27;20556;-65
2021/05/29 06:39:02;;;;;;;9.68;4.30;;;;;;;;;;5159217;27;20480;-63
2021/05/29 06:41:28;;;;;;;9.65;4.30;;;;;;;;;;5157506;27;20082;-66
2021/05/29 06:43:54;;;;;;;10.88;4.35;;;;;;;;;;5159164;27;20098;-66
2021/05/29 06:46:20;;;;;;;18.48;4.72;;;;;;;;;;5159093;27;20071;-64
2021/05/29 06:48:46;;;;;;;10.82;3.62;;;;;;;;;;5159239;27;20101;-65
2021/05/29 06:51:18;;;;;;;10.25;3.70;;;;;;;;;;5157602;27;20122;-66
2021/05/29 06:53:50;;;;;;;20.70;3.95;;;;;;;;;;5159297;27;20078;-63
2021/05/29 06:59:03;;;;;;;13.50;5.10;;;;;;;;;;5159187;27;20061;-67
2021/05/29 07:01:29;;;;;;;10.45;4.80;;;;;;;;;;5159284;27;20098;-63
2021/05/29 07:03:55;;;;;;;13.57;3.92;;;;;;;;;;5159459;27;20087;-65
2021/05/29 07:06:21;;;;;;;9.75;4.12;;;;;;;;;;5159108;27;20059;-65
2021/05/29 07:08:48;;;;;;;8.10;4.57;;;;;;;;;;5157453;27;20587;-63
2021/05/29 07:11:14;;;;;;;17.37;5.12;;;;;;;;;;5158131;27;20078;-63
2021/05/29 07:13:40;;;;;;;9.00;4.22;;;;;;;;;;5160571;27;20071;-63
2021/05/29 07:16:06;;;;;;;17.90;4.50;;;;;;;;;;5160330;27;20194;-65
2021/05/29 07:18:39;;;;;;;21.02;5.12;;;;;;;;;;5160518;27;20212;-63
2021/05/29 07:21:05;;;;;;;10.25;4.85;;;;;;;;;;5142541;27;20109;-65
2021/05/29 07:23:31;;;;;;;16.48;5.25;;;;;;;;;;5160497;27;20090;-63
2021/05/29 07:25:57;;;;;;;17.67;4.68;;;;;;;;;;5160353;27;20496;-63
2021/05/29 07:28:23;;;;;;;15.48;6.10;;;;;;;;;;5160645;27;20085;-65
2021/05/29 07:30:49;;;;;;;11.38;4.57;;;;;;;;;;5160381;27;20087;-66
2021/05/29 07:33:16;;;;;;;10.38;4.47;;;;;;;;;;5160299;27;20575;-65
2021/05/29 07:35:42;;;;;;;7.62;4.47;;;;;;;;;;5160469;27;20463;-66
2021/05/29 07:38:08;;;;;;;14.35;5.70;;;;;;;;;;5160496;27;20097;-64
2021/05/29 07:40:34;;;;;;;26.40;5.90;;;;;;;;;;5159014;27;20185;-64
2021/05/29 07:43:00;;;;;;;11.88;4.32;;;;;;;;;;5159120;27;20404;-65
2021/05/29 07:45:28;;;;;;;10.15;3.40;;;;;;;;;;5160361;27;20507;-63
2021/05/29 07:47:54;;;;;;;12.80;4.10;;;;;;;;;;5158471;27;20089;-64
2021/05/29 07:50:20;;;;;;;12.63;3.40;;;;;;;;;;5160690;27;20066;-64
2021/05/29 07:52:46;;;;;;;8.93;3.42;;;;;;;;;;5160163;27;20098;-63
2021/05/29 07:55:12;;;;;;;11.88;3.50;;;;;;;;;;5160263;27;20184;-63
2021/05/29 07:57:38;;;;;;;8.93;3.62;;;;;;;;;;5160342;27;20100;-64
2021/05/29 08:00:10;;;;;;;9.85;3.70;;;;;;;;;;5160238;27;20165;-64
2021/05/29 08:02:37;;;;;;;8.85;3.50;;;;;;;;;;5160147;27;20082;-64
2021/05/29 08:05:03;;;;;;;7.28;2.95;;;;;;;;;;5160210;27;20083;-66
2021/05/29 08:07:29;;;;;;;6.22;3.08;;;;;;;;;;5160302;27;20465;-64
2021/05/29 08:09:56;;;;;;;6.47;3.50;;;;;;;;;;5158386;27;20090;-64
2021/05/29 08:12:23;;;;;;;6.40;2.55;;;;;;;;;;5159928;27;20086;-64
2021/05/29 08:14:49;;;;;;;6.97;2.90;;;;;;;;;;5160451;27;20078;-64
2021/05/29 08:17:15;;;;;;;4.50;2.53;;;;;;;;;;5160085;27;20180;-66
2021/05/29 08:19:41;;;;;;;7.93;2.67;;;;;;;;;;5160154;27;20094;-64
2021/05/29 08:22:06;;;;;;;6.53;2.42;;;;;;;;;;5157923;27;20254;-65
2021/05/29 08:24:32;;;;;;;3.15;1.90;;;;;;;;;;5158759;27;20100;-66
2021/05/29 08:27:00;;;;;;;5.87;2.28;;;;;;;;;;5158126;27;20094;-63
2021/05/29 08:29:26;;;;;;;9.27;2.45;;;;;;;;;;5160167;27;20481;-64
2021/05/29 08:31:51;;;;;;;6.70;2.30;;;;;;;;;;5160164;27;20184;-64
2021/05/29 08:34:17;;;;;;;7.22;2.50;;;;;;;;;;5158381;27;20209;-64
2021/05/29 08:36:43;;;;;;;6.50;2.20;;;;;;;;;;5160026;27;20070;-65
2021/05/29 08:39:10;;;;;;;6.03;2.35;;;;;;;;;;5159975;27;20186;-67
2021/05/29 08:41:36;;;;;;;3.65;2.42;;;;;;;;;;5159875;27;20469;-66
2021/05/29 08:44:03;;;;;;;5.93;2.92;;;;;;;;;;5159991;27;20268;-66
2021/05/29 08:46:29;;;;;;;4.30;2.22;;;;;;;;;;5159861;27;20082;-65
2021/05/29 08:48:55;;;;;;;5.60;2.08;;;;;;;;;;5160265;27;20183;-64
2021/05/29 08:51:22;;;;;;;7.72;2.78;;;;;;;;;;5140848;27;20488;-64
2021/05/29 08:53:52;;;;;;;4.62;1.98;;;;;;;;;;5159926;27;20086;-67
2021/05/29 08:56:19;;;;;;;7.47;2.53;;;;;;;;;;5158355;27;20066;-66
2021/05/29 08:58:45;;;;;;;4.22;2.47;;;;;;;;;;5159875;27;20074;-66
2021/05/29 09:01:11;;;;;;;3.40;2.40;;;;;;;;;;5159635;27;20071;-65
2021/05/29 09:03:46;;;;;;;3.72;2.67;;;;;;;;;;5158134;27;20105;-66
2021/05/29 09:06:13;;;;;;;3.65;2.10;;;;;;;;;;5160066;27;20474;-63
2021/05/29 09:08:49;;;;;;;3.97;1.98;;;;;;;;;;5159813;27;20066;-65
2021/05/29 09:11:34;;;;;;;5.43;2.90;;;;;;;;;;5159671;27;20062;-65
2021/05/29 09:14:00;;;;;;;5.20;2.58;;;;;;;;;;5159868;27;20090;-66
2021/05/29 09:16:26;;;;;;;10.70;2.95;;;;;;;;;;5160013;27;20178;-66
2021/05/29 09:18:52;;;;;;;2.90;2.22;;;;;;;;;;5159784;27;20183;-64
2021/05/29 09:21:21;;;;;;;5.50;2.25;;;;;;;;;;5159684;27;20094;-63
2021/05/29 09:24:14;;;;;;;5.70;3.20;;;;;;;;;;5159889;27;20179;-66
2021/05/29 09:27:04;;;;;;;4.50;2.42;;;;;;;;;;5148875;27;20079;-66
2021/05/29 09:29:30;;;;;;;2.58;2.10;;;;;;;;;;5158146;27;20073;-66
2021/05/29 09:31:58;;;;;;;6.35;2.65;;;;;;;;;;5159529;27;20150;-65
2021/05/29 09:34:35;;;;;;;5.07;2.78;;;;;;;;;;5159470;27;20074;-65
2021/05/29 09:37:05;;;;;;;3.47;2.30;;;;;;;;;;5157909;27;20164;-66
2021/05/29 09:39:31;;;;;;;7.10;3.12;;;;;;;;;;5159673;27;20432;-64
2021/05/29 09:41:58;;;;;;;11.93;2.80;;;;;;;;;;5159792;27;20125;-65
2021/05/29 09:44:27;;;;;;;8.52;2.50;;;;;;;;;;5159868;27;20092;-63
2021/05/29 09:46:54;;;;;;;12.55;3.60;;;;;;;;;;5157779;27;20440;-66
2021/05/29 09:49:20;;;;;;;7.80;3.65;;;;;;;;;;5159543;27;20402;-65
2021/05/29 09:51:46;;;;;;;6.00;3.00;;;;;;;;;;5159479;27;20100;-65
2021/05/29 09:54:12;;;;;;;6.62;2.97;;;;;;;;;;5157823;27;20094;-64
2021/05/29 09:56:44;;;;;;;4.78;2.40;;;;;;;;;;5159490;27;20081;-64
2021/05/29 09:59:13;;;;;;;8.43;3.72;;;;;;;;;;5159360;27;20090;-64
2021/05/29 10:01:55;;;;;;;5.28;2.50;;;;;;;;;;5157755;27;20094;-64
2021/05/29 10:04:42;;;;;;;12.73;2.65;;;;;;;;;;5159496;27;20504;-65
2021/05/29 10:07:14;;;;;;;5.43;2.80;;;;;;;;;;5159459;27;20098;-65
2021/05/29 10:09:41;;;;;;;5.03;2.72;;;;;;;;;;5159522;27;20177;-64
2021/05/29 10:12:07;;;;;;;15.45;3.40;;;;;;;;;;5159305;27;20075;-66
2021/05/29 10:14:34;;;;;;;10.70;3.10;;;;;;;;;;5159688;27;20102;-62
2021/05/29 10:17:05;;;;;;;9.18;3.47;;;;;;;;;;5159237;27;20204;-64
2021/05/29 10:19:32;;;;;;;6.25;2.30;;;;;;;;;;5157950;27;20171;-65
2021/05/29 10:21:58;;;;;;;7.40;2.45;;;;;;;;;;5159160;27;20565;-64
2021/05/29 10:24:25;;;;;;;8.70;3.28;;;;;;;;;;5157671;27;20069;-65
2021/05/29 10:26:52;;;;;;;6.95;2.90;;;;;;;;;;5159345;27;20086;-64
2021/05/29 10:29:29;;;;;;;12.52;3.42;;;;;;;;;;5157933;27;20260;-64
2021/05/29 10:32:16;;;;;;;5.97;3.58;;;;;;;;;;5157707;27;20409;-66
2021/05/29 10:34:54;;;;;;;13.07;3.03;;;;;;;;;;5159427;27;20186;-63
2021/05/29 10:37:28;;;;;;;9.25;2.62;;;;;;;;;;5159171;27;20497;-66
2021/05/29 10:39:54;;;;;;;10.20;2.87;;;;;;;;;;5159549;27;20101;-65
2021/05/29 10:42:30;;;;;;;11.32;3.50;;;;;;;;;;5159292;27;20091;-64
2021/05/29 10:45:23;;;;;;;6.05;2.97;;;;;;;;;;5159063;27;20085;-65
2021/05/29 10:48:04;;;;;;;14.32;3.67;;;;;;;;;;5157624;27;20481;-65
2021/05/29 10:53:53;;;;;;;8.65;2.95;;;;;;;;;;5159408;27;20480;-66
2021/05/29 10:56:19;;;;;;;16.75;3.35;;;;;;;;;;5159460;27;20098;-66
2021/05/29 10:58:54;;;;;;;9.75;3.00;;;;;;;;;;5159187;27;20082;-65
2021/05/29 11:01:21;;;;;;;5.65;2.65;;;;;;;;;;5159096;27;20093;-63
2021/05/29 11:03:48;;;;;;;5.97;2.70;;;;;;;;;;5159230;27;20329;-66
2021/05/29 11:06:30;;;;;;;8.00;3.60;;;;;;;;;;5159306;27;20078;-66
2021/05/29 11:09:00;;;;;;;9.40;3.67;;;;;;;;;;5159490;27;20075;-65
2021/05/29 11:14:47;;;;;;;11.25;3.92;;;;;;;;;;5159803;27;20069;-64
2021/05/29 11:17:15;;;;;;;18.33;4.82;;;;;;;;;;5152945;27;20079;-66
2021/05/29 11:19:41;;;;;;;7.18;3.65;;;;;;;;;;5157732;27;20082;-65
2021/05/29 11:22:12;;;;;;;10.65;4.15;;;;;;;;;;5158885;27;20077;-65
2021/05/29 11:24:48;;;;;;;4.28;2.92;;;;;;;;;;5159449;27;20085;-65
2021/05/29 11:27:34;;;;;;;5.22;3.53;;;;;;;;;;5159114;27;20146;-66
2021/05/29 11:30:11;;;;;;;12.37;3.83;;;;;;;;;;5159019;27;20086;-64
2021/05/29 11:35:27;;;;;;;8.85;3.10;;;;;;;;;;5159109;27;20149;-66
2021/05/29 11:37:59;;;;;;;6.80;2.87;;;;;;;;;;5159484;27;20177;-65
2021/05/29 11:40:44;;;;;;;6.40;2.67;;;;;;;;;;5159125;27;20068;-65
2021/05/29 11:43:10;;;;;;;7.97;2.83;;;;;;;;;;5157530;27;20188;-66
2021/05/29 11:45:37;;;;;;;7.05;3.00;;;;;;;;;;5159132;27;20150;-63
2021/05/29 11:48:05;;;;;;;6.03;2.87;;;;;;;;;;5158882;27;20086;-65
2021/05/29 11:50:31;;;;;;;8.05;2.37;;;;;;;;;;5159192;27;20078;-65
2021/05/29 11:52:57;;;;;;;10.52;3.25;;;;;;;;;;5158969;27;20161;-64
2021/05/29 11:55:23;;;;;;;9.45;2.70;;;;;;;;;;5159301;27;20074;-64
2021/05/29 11:58:03;;;;;;;9.30;2.95;;;;;;;;;;5160133;27;20570;-65
2021/05/29 12:00:29;;;;;;;6.87;3.40;;;;;;;;;;5160271;27;20086;-64
2021/05/29 12:02:55;;;;;;;6.32;3.67;;;;;;;;;;5158756;27;20082;-64
2021/05/29 12:05:22;;;;;;;8.30;3.25;;;;;;;;;;5160555;27;20179;-65
2021/05/29 12:08:01;;;;;;;8.85;3.10;;;;;;;;;;5158987;27;20150;-66
2021/05/29 12:10:53;;;;;;;5.55;2.90;;;;;;;;;;5160235;27;20078;-64
2021/05/29 12:13:26;;;;;;;7.22;4.50;;;;;;;;;;5160503;27;20098;-66
2021/05/29 12:16:02;;;;;;;6.45;3.03;;;;;;;;;;5160464;27;20398;-64
2021/05/29 12:18:38;;;;;;;7.50;3.10;;;;;;;;;;5176277;27;20249;-65
2021/05/29 12:21:06;;;;;;;14.15;3.70;;;;;;;;;;5160236;27;20433;-63
2021/05/29 12:23:58;;;;;;;7.53;3.17;;;;;;;;;;5160421;27;20082;-64
2021/05/29 12:26:26;;;;;;;6.10;2.97;;;;;;;;;;5148911;27;20083;-63
2021/05/29 12:28:53;;;;;;;3.92;2.80;;;;;;;;;;5141178;27;20489;-64
2021/05/29 12:31:22;;;;;;;8.55;2.90;;;;;;;;;;5159832;27;20593;-65
2021/05/29 12:34:08;;;;;;;15.32;3.15;;;;;;;;;;5160074;27;20094;-64
2021/05/29 12:36:34;;;;;;;8.95;3.50;;;;;;;;;;5160157;27;20073;-63
2021/05/29 12:39:00;;;;;;;3.97;3.05;;;;;;;;;;5160245;27;20513;-64
2021/05/29 12:41:36;;;;;;;8.25;3.20;;;;;;;;;;5159883;27;20480;-65
2021/05/29 12:44:05;;;;;;;8.93;3.05;;;;;;;;;;5160336;27;20113;-64
2021/05/29 12:46:31;;;;;;;7.28;4.87;;;;;;;;;;5159923;27;20225;-64
2021/05/29 12:49:14;;;;;;;10.63;3.60;;;;;;;;;;5159904;27;20091;-64
2021/05/29 12:51:48;;;;;;;6.45;3.42;;;;;;;;;;5175513;27;20110;-64
2021/05/29 12:54:14;;;;;;;7.37;3.83;;;;;;;;;;5160039;27;20516;-65
2021/05/29 12:56:56;;;;;;;7.68;3.58;;;;;;;;;;5160138;27;20176;-64
2021/05/29 12:59:27;;;;;;;15.00;2.92;;;;;;;;;;5159962;27;20082;-65
2021/05/29 13:07:34;;;;;;;12.60;3.60;;;;;;;;;;5160006;27;20072;-64
2021/05/29 13:10:05;;;;;;;3.85;2.87;;;;;;;;;;5159716;27;20108;-65
2021/05/29 13:12:38;;;;;;;5.20;2.75;;;;;;;;;;5158250;27;20224;-63
2021/05/29 13:15:27;;;;;;;6.75;2.50;;;;;;;;;;5159945;27;20075;-64
2021/05/29 13:18:18;;;;;;;10.05;3.40;;;;;;;;;;5141888;27;20081;-66
2021/05/29 13:20:47;;;;;;;5.18;2.90;;;;;;;;;;5158283;27;20073;-66
2021/05/29 13:23:16;;;;;;;4.00;2.78;;;;;;;;;;5158083;27;20097;-66
2021/05/29 13:25:46;;;;;;;7.07;2.87;;;;;;;;;;5159891;27;20110;-64
2021/05/29 13:28:16;;;;;;;5.37;2.78;;;;;;;;;;5157869;27;20105;-65
2021/05/29 13:30:43;;;;;;;13.50;3.37;;;;;;;;;;5159904;27;20097;-63
2021/05/29 13:33:30;;;;;;;9.40;3.75;;;;;;;;;;5159776;27;20101;-65
2021/05/29 13:35:56;;;;;;;6.18;2.80;;;;;;;;;;5157913;27;20425;-65
2021/05/29 13:38:22;;;;;;;6.35;3.12;;;;;;;;;;5158000;27;20125;-63
2021/05/29 13:40:48;;;;;;;10.63;2.92;;;;;;;;;;5159949;27;20109;-64
2021/05/29 13:43:14;;;;;;;5.70;2.67;;;;;;;;;;5159418;27;20102;-65
2021/05/29 13:45:40;;;;;;;7.60;2.65;;;;;;;;;;5159899;27;20510;-64
2021/05/29 13:48:07;;;;;;;9.65;3.78;;;;;;;;;;5159574;27;20086;-65
2021/05/29 13:50:33;;;;;;;9.23;2.58;;;;;;;;;;5159558;27;20090;-65
2021/05/29 13:52:59;;;;;;;10.82;2.78;;;;;;;;;;5159562;27;20078;-65
2021/05/29 13:55:25;;;;;;;5.47;2.70;;;;;;;;;;5159537;27;20070;-62
2021/05/29 13:57:53;;;;;;;7.82;2.28;;;;;;;;;;5159330;27;20480;-63
2021/05/29 14:00:20;;;;;;;9.95;2.85;;;;;;;;;;5159577;27;20067;-65
2021/05/29 14:02:46;;;;;;;9.50;4.20;;;;;;;;;;5159222;27;20185;-64
2021/05/29 14:05:13;;;;;;;10.45;3.80;;;;;;;;;;5159398;27;20086;-62
2021/05/29 14:07:39;;;;;;;8.63;4.12;;;;;;;;;;5159788;27;20489;-64
2021/05/29 14:10:05;;;;;;;10.25;4.12;;;;;;;;;;5159524;27;20096;-64
2021/05/29 14:12:31;;;;;;;11.68;3.80;;;;;;;;;;5157748;27;20063;-63
2021/05/29 14:14:57;;;;;;;9.48;3.28;;;;;;;;;;5159734;27;20160;-63
2021/05/29 14:17:23;;;;;;;8.55;3.55;;;;;;;;;;5159168;27;20475;-64
2021/05/29 14:19:49;;;;;;;9.07;3.47;;;;;;;;;;5159008;27;20094;-64
2021/05/29 14:22:15;;;;;;;4.68;2.90;;;;;;;;;;5159257;27;20097;-65
2021/05/29 14:24:42;;;;;;;7.70;3.17;;;;;;;;;;5157742;27;20197;-65
2021/05/29 14:27:09;;;;;;;7.65;3.28;;;;;;;;;;5159509;27;20081;-65
2021/05/29 14:29:35;;;;;;;5.18;2.83;;;;;;;;;;5159409;27;20173;-65
2021/05/29 14:32:01;;;;;;;5.65;3.08;;;;;;;;;;5157723;27;20181;-64
2021/05/29 14:34:27;;;;;;;7.60;3.30;;;;;;;;;;5159334;27;20069;-66
2021/05/29 14:36:53;;;;;;;11.80;3.78;;;;;;;;;;5159301;27;20086;-64
2021/05/29 14:39:19;;;;;;;6.78;3.10;;;;;;;;;;5159234;27;20576;-64
2021/05/29 14:41:45;;;;;;;3.97;3.22;;;;;;;;;;5159112;27;20484;-63
2021/05/29 14:44:11;;;;;;;9.60;4.28;;;;;;;;;;5159437;27;20117;-64
2021/05/29 14:46:37;;;;;;;6.85;3.42;;;;;;;;;;5159548;27;20086;-65
2021/05/29 14:49:04;;;;;;;4.70;3.22;;;;;;;;;;5159494;27;20155;-64
2021/05/29 14:51:35;;;;;;;10.73;3.60;;;;;;;;;;5157424;27;20071;-63
2021/05/29 14:54:01;;;;;;;11.32;4.35;;;;;;;;;;5159237;27;20098;-63
2021/05/29 14:56:29;;;;;;;11.48;3.25;;;;;;;;;;5159163;27;20325;-64
2021/05/29 14:58:55;;;;;;;10.63;3.60;;;;;;;;;;5159209;27;20466;-65
2021/05/29 15:01:21;;;;;;;12.37;4.40;;;;;;;;;;5159011;27;20089;-63
2021/05/29 15:03:50;;;;;;;7.00;4.37;;;;;;;;;;5159193;27;20192;-63
2021/05/29 15:06:16;;;;;;;12.27;3.75;;;;;;;;;;5159096;27;20081;-65
2021/05/29 15:08:42;;;;;;;5.90;4.22;;;;;;;;;;5159500;27;20104;-62
2021/05/29 15:11:07;;;;;;;21.23;5.30;;;;;;;;;;5157330;27;20094;-64
2021/05/29 15:13:34;;;;;;;12.75;4.95;;;;;;;;;;5157753;27;20450;-65
2021/05/29 15:16:00;;;;;;;15.70;4.70;;;;;;;;;;5157562;27;20145;-64
2021/05/29 15:18:25;;;;;;;9.35;4.70;;;;;;;;;;5159050;27;20389;-64
2021/05/29 15:23:20;;;;;;;11.75;5.50;;;;;;;;;;5159187;27;20069;-64
2021/05/29 15:25:51;;;;;;;12.02;5.47;;;;;;;;;;5159146;27;20081;-65
2021/05/29 15:28:17;;;;;;;7.82;4.57;;;;;;;;;;5158843;27;20097;-64
2021/05/29 15:30:43;;;;;;;11.20;5.72;;;;;;;;;;5157368;27;20102;-64
2021/05/29 15:33:09;;;;;;;12.77;5.32;;;;;;;;;;5160144;27;20442;-64
2021/05/29 15:35:35;;;;;;;16.42;5.22;;;;;;;;;;5160816;27;20161;-65
2021/05/29 15:38:01;;;;;;;11.32;4.40;;;;;;;;;;5160187;27;20085;-64
2021/05/29 15:40:26;;;;;;;9.70;4.32;;;;;;;;;;5160849;27;20398;-65
2021/05/29 15:42:52;;;;;;;9.05;4.80;;;;;;;;;;5160469;27;20232;-63